Time;durP1;ratioP1;P1;durP2;ratioP2;P2;SDS_P1;SDS_P2;PMS_P1;PMS_P2;Temp;Humidity;BMP_temperature;BMP_pressure;BME280_temperature;BME280_humidity;BME280_pressure;Samples;Min_cycle;Max_cycle;Signal;HPM_P1;HPM_P2
2024/01/20 00:01:54;;;;;;;0.10;0.10;;;;;;;-6.33;100.00;144740.81;4994746;28;20234;-66
2024/01/20 00:04:21;;;;;;;0.10;0.10;;;;;;;-6.28;100.00;144754.38;4992458;28;20713;-66
2024/01/20 00:06:49;;;;;;;0.00;0.00;;;;;;;-6.18;100.00;144776.50;4996257;28;20230;-66
2024/01/20 00:09:16;;;;;;;0.00;0.00;;;;;;;-6.24;100.00;144762.97;4995750;28;20226;-66
2024/01/20 00:11:43;;;;;;;0.00;0.00;;;;;;;-6.32;100.00;144744.53;4996922;28;20231;-66
2024/01/20 00:14:09;;;;;;;0.00;0.00;;;;;;;-6.24;100.00;144762.97;5008333;28;20231;-66
2024/01/20 00:16:36;;;;;;;0.00;0.00;;;;;;;-6.25;100.00;144761.75;4998015;28;20875;-66
2024/01/20 00:19:03;;;;;;;0.00;0.00;;;;;;;-6.29;100.00;144750.66;4993766;28;20616;-66
2024/01/20 00:21:30;;;;;;;0.03;0.03;;;;;;;-6.35;100.00;144735.91;4998451;28;20243;-66
2024/01/20 00:23:58;;;;;;;0.10;0.10;;;;;;;-6.40;100.00;144726.09;4997346;28;20250;-66
2024/01/20 00:26:25;;;;;;;0.07;0.07;;;;;;;-6.42;100.00;144721.19;4997688;28;20243;-66
2024/01/20 00:28:51;;;;;;;0.00;0.00;;;;;;;-6.43;100.00;144717.47;4995485;28;20227;-67
2024/01/20 00:31:18;;;;;;;0.07;0.07;;;;;;;-6.40;100.00;144726.09;4992529;28;20252;-65
2024/01/20 00:33:49;;;;;;;0.07;0.07;;;;;;;-6.32;100.00;144744.53;4998919;28;20257;-65
2024/01/20 00:36:15;;;;;;;0.10;0.10;;;;;;;-6.35;100.00;144735.91;4993980;28;20680;-65
2024/01/20 00:38:42;;;;;;;0.00;0.00;;;;;;;-6.42;100.00;144719.94;4997335;28;20570;-65
2024/01/20 00:41:11;;;;;;;0.10;0.10;;;;;;;-6.44;100.00;144715.00;4992667;28;20338;-64
2024/01/20 00:43:37;;;;;;;0.10;0.10;;;;;;;-6.44;100.00;144715.00;4997781;28;20265;-64
2024/01/20 00:46:04;;;;;;;0.00;0.00;;;;;;;-6.52;100.00;144696.59;4994795;28;20574;-65
2024/01/20 00:48:31;;;;;;;0.10;0.10;;;;;;;-6.55;100.00;144690.41;4996705;28;20756;-64
2024/01/20 00:50:57;;;;;;;0.07;0.07;;;;;;;-6.58;100.00;144683.03;4993843;28;20227;-65
2024/01/20 00:53:24;;;;;;;0.07;0.07;;;;;;;-6.59;100.00;144679.38;4994638;28;20709;-64
2024/01/20 00:55:51;;;;;;;0.10;0.10;;;;;;;-6.59;100.00;144680.56;4995667;28;20237;-64
2024/01/20 00:58:19;;;;;;;0.00;0.00;;;;;;;-6.50;100.00;144701.50;5007288;28;20233;-64
2024/01/20 01:00:46;;;;;;;0.00;0.00;;;;;;;-6.52;100.00;144696.59;4997763;28;20286;-64
2024/01/20 01:03:12;;;;;;;0.10;0.10;;;;;;;-6.57;100.00;144684.28;5000269;28;20237;-64
2024/01/20 01:05:39;;;;;;;0.03;0.03;;;;;;;-6.60;100.00;144678.13;5013586;28;20226;-64
2024/01/20 01:08:06;;;;;;;0.00;0.00;;;;;;;-6.49;100.00;144703.97;4994696;28;20243;-65
2024/01/20 01:10:33;;;;;;;0.10;0.10;;;;;;;-6.55;100.00;144689.22;4994354;28;20233;-63
2024/01/20 01:12:59;;;;;;;0.00;0.00;;;;;;;-6.58;100.00;144681.81;4993347;28;20375;-65
2024/01/20 01:15:28;;;;;;;0.10;0.10;;;;;;;-6.55;100.00;144689.22;4996907;28;20241;-65
2024/01/20 01:17:55;;;;;;;0.00;0.00;;;;;;;-6.61;100.00;144674.44;4993623;28;20313;-65
2024/01/20 01:20:21;;;;;;;0.10;0.10;;;;;;;-6.62;100.00;144673.19;4984844;28;20238;-66
2024/01/20 01:22:50;;;;;;;0.10;0.10;;;;;;;-6.61;100.00;144674.44;4996216;28;20752;-66
2024/01/20 01:25:17;;;;;;;0.10;0.10;;;;;;;-6.69;100.00;144655.97;4994409;28;20316;-66
2024/01/20 01:27:43;;;;;;;0.10;0.10;;;;;;;-6.73;100.00;144646.16;4997117;28;20232;-66
2024/01/20 01:30:11;;;;;;;0.10;0.10;;;;;;;-6.75;100.00;144641.22;4999821;28;20560;-66
2024/01/20 01:32:39;;;;;;;0.00;0.00;;;;;;;-6.75;100.00;144641.22;4995078;28;20234;-66
2024/01/20 01:35:06;;;;;;;0.10;0.10;;;;;;;-6.70;100.00;144653.53;5007818;28;20231;-66
2024/01/20 01:37:32;;;;;;;0.00;0.00;;;;;;;-6.78;100.00;144633.84;4996467;28;20235;-66
2024/01/20 01:39:59;;;;;;;0.07;0.07;;;;;;;-6.84;100.00;144620.34;4992882;28;20226;-66
2024/01/20 01:42:26;;;;;;;0.10;0.10;;;;;;;-6.80;100.00;144628.94;4993306;28;20270;-66
2024/01/20 01:44:53;;;;;;;0.10;0.10;;;;;;;-6.87;100.00;144614.19;4992469;28;20283;-66
2024/01/20 01:47:20;;;;;;;0.10;0.10;;;;;;;-6.85;100.00;144619.09;4990236;28;20574;-66
2024/01/20 01:49:48;;;;;;;0.10;0.10;;;;;;;-6.77;100.00;144636.31;4994638;28;20222;-66
2024/01/20 01:52:16;;;;;;;0.10;0.10;;;;;;;-6.89;100.00;144608.06;4994360;28;20704;-66
2024/01/20 01:54:43;;;;;;;0.00;0.00;;;;;;;-6.96;100.00;144592.09;5007961;28;20317;-65
2024/01/20 01:57:11;;;;;;;0.10;0.10;;;;;;;-6.93;100.00;144598.22;4992021;28;20612;-66
2024/01/20 01:59:38;;;;;;;0.10;0.10;;;;;;;-6.89;100.00;144608.06;4996621;28;20230;-66
2024/01/20 02:02:04;;;;;;;0.10;0.10;;;;;;;-6.89;100.00;144609.25;4993426;28;20220;-66
2024/01/20 02:04:31;;;;;;;0.10;0.10;;;;;;;-6.93;100.00;144598.22;4997912;28;20252;-66
2024/01/20 02:06:59;;;;;;;0.10;0.10;;;;;;;-6.93;100.00;144599.47;4993931;28;20256;-66
2024/01/20 02:09:26;;;;;;;0.10;0.10;;;;;;;-6.97;100.00;144589.63;4995914;28;20229;-66
2024/01/20 02:11:53;;;;;;;0.00;0.00;;;;;;;-7.00;100.00;144583.47;4995866;28;20292;-66
2024/01/20 02:14:21;;;;;;;0.00;0.00;;;;;;;-7.02;100.00;144578.56;4990674;28;20242;-66
2024/01/20 02:16:47;;;;;;;0.00;0.00;;;;;;;-6.99;100.00;144585.94;4992222;28;20736;-66
2024/01/20 02:19:14;;;;;;;0.10;0.10;;;;;;;-6.98;100.00;144588.38;4983422;28;20226;-66
2024/01/20 02:21:41;;;;;;;0.10;0.10;;;;;;;-6.91;100.00;144603.13;4991477;28;20239;-66
2024/01/20 02:24:11;;;;;;;0.10;0.10;;;;;;;-6.88;100.00;144610.50;4980834;28;20261;-66
2024/01/20 02:26:38;;;;;;;0.10;0.10;;;;;;;-6.88;100.00;144610.50;5010238;28;20247;-66
2024/01/20 02:29:05;;;;;;;0.10;0.10;;;;;;;-6.83;100.00;144622.81;4991452;28;20706;-66
2024/01/20 02:31:31;;;;;;;0.10;0.10;;;;;;;-6.88;100.00;144610.50;5000405;28;20864;-66
2024/01/20 02:33:58;;;;;;;0.00;0.00;;;;;;;-6.80;100.00;144628.94;4990451;28;20350;-67
2024/01/20 02:36:25;;;;;;;0.10;0.10;;;;;;;-6.79;100.00;144632.66;4992239;28;20238;-66
2024/01/20 02:38:51;;;;;;;0.10;0.10;;;;;;;-6.84;100.00;144620.34;4993844;28;20714;-66
2024/01/20 02:41:19;;;;;;;0.10;0.10;;;;;;;-6.93;100.00;144598.22;4993622;28;20239;-66
2024/01/20 02:43:48;;;;;;;0.00;0.00;;;;;;;-6.97;100.00;144590.84;4995699;28;20226;-66
2024/01/20 02:46:15;;;;;;;0.10;0.10;;;;;;;-6.96;100.00;144592.09;4990362;28;20685;-66
2024/01/20 02:48:41;;;;;;;0.10;0.10;;;;;;;-6.95;100.00;144594.56;4993820;28;20227;-66
2024/01/20 02:51:09;;;;;;;0.10;0.10;;;;;;;-6.90;100.00;144606.84;5006331;28;20230;-66
2024/01/20 02:53:35;;;;;;;0.10;0.10;;;;;;;-6.84;100.00;144620.34;4996337;28;20234;-66
2024/01/20 02:56:02;;;;;;;0.10;0.10;;;;;;;-6.83;100.00;144622.81;4987400;28;20236;-66
2024/01/20 02:58:30;;;;;;;0.10;0.10;;;;;;;-6.79;100.00;144631.38;4993662;28;20242;-66
2024/01/20 03:00:58;;;;;;;0.10;0.10;;;;;;;-6.82;100.00;144626.47;4990406;28;20234;-66
2024/01/20 03:03:25;;;;;;;0.10;0.10;;;;;;;-6.78;100.00;144635.09;4994518;28;20254;-66
2024/01/20 03:05:51;;;;;;;0.00;0.00;;;;;;;-6.86;100.00;144615.44;4994941;28;20237;-65
2024/01/20 03:08:18;;;;;;;0.07;0.07;;;;;;;-6.87;100.00;144614.19;4994221;28;20240;-66
2024/01/20 03:10:45;;;;;;;0.10;0.10;;;;;;;-6.91;100.00;144604.38;4993437;28;20268;-66
2024/01/20 03:13:11;;;;;;;0.00;0.00;;;;;;;-6.90;100.00;144606.84;4988389;28;20245;-66
2024/01/20 03:15:39;;;;;;;0.10;0.10;;;;;;;-6.90;100.00;144605.59;4983456;28;20773;-66
2024/01/20 03:18:07;;;;;;;0.00;0.00;;;;;;;-6.97;100.00;144589.63;4990396;28;20574;-66
2024/01/20 03:20:33;;;;;;;0.10;0.10;;;;;;;-6.99;100.00;144584.72;4993658;28;20233;-66
2024/01/20 03:23:01;;;;;;;0.10;0.10;;;;;;;-6.94;100.00;144595.75;4993167;28;20233;-66
2024/01/20 03:25:27;;;;;;;0.00;0.00;;;;;;;-7.00;100.00;144583.47;4993785;28;20319;-66
2024/01/20 03:27:54;;;;;;;0.00;0.00;;;;;;;-6.98;100.00;144588.38;4993664;28;20221;-66
2024/01/20 03:30:21;;;;;;;0.10;0.10;;;;;;;-6.99;100.00;144584.72;4989362;28;20227;-66
2024/01/20 03:32:50;;;;;;;0.10;0.10;;;;;;;-7.01;100.00;144581.00;4993750;28;20230;-66
2024/01/20 03:35:17;;;;;;;0.00;0.00;;;;;;;-7.06;100.00;144568.72;4990484;28;20296;-66
2024/01/20 03:37:43;;;;;;;0.00;0.00;;;;;;;-7.15;100.00;144546.59;4993547;28;20590;-66
2024/01/20 03:40:10;;;;;;;0.10;0.10;;;;;;;-7.18;100.00;144539.22;4990245;28;20227;-66
2024/01/20 03:42:37;;;;;;;0.10;0.10;;;;;;;-7.09;100.00;144561.34;4993631;28;20230;-66
2024/01/20 03:45:04;;;;;;;0.00;0.00;;;;;;;-6.98;100.00;144587.19;4991088;28;20233;-66
2024/01/20 03:47:31;;;;;;;0.10;0.10;;;;;;;-7.07;100.00;144565.06;4993232;28;20234;-66
2024/01/20 03:49:58;;;;;;;0.10;0.10;;;;;;;-7.10;100.00;144558.88;4990241;28;20225;-66
2024/01/20 03:52:25;;;;;;;0.03;0.03;;;;;;;-7.18;100.00;144540.47;4994305;28;20245;-66
2024/01/20 03:54:52;;;;;;;0.10;0.10;;;;;;;-7.03;100.00;144576.09;4991606;28;20222;-66
2024/01/20 03:57:18;;;;;;;0.00;0.00;;;;;;;-7.04;100.00;144573.63;4988708;28;20230;-66
2024/01/20 03:59:45;;;;;;;0.00;0.00;;;;;;;-7.03;100.00;144574.88;4993289;28;20226;-66
2024/01/20 04:02:11;;;;;;;0.10;0.10;;;;;;;-7.03;100.00;144574.88;4989880;28;20265;-66
2024/01/20 04:04:38;;;;;;;0.07;0.07;;;;;;;-7.10;100.00;144557.69;5007592;28;20237;-66
2024/01/20 04:07:06;;;;;;;0.10;0.10;;;;;;;-7.19;100.00;144538.00;4991555;28;20218;-66
2024/01/20 04:09:33;;;;;;;0.10;0.10;;;;;;;-7.18;100.00;144540.47;4994185;28;20299;-66
2024/01/20 04:12:00;;;;;;;0.10;0.10;;;;;;;-7.20;100.00;144535.56;4988666;28;20244;-66
2024/01/20 04:14:26;;;;;;;0.10;0.10;;;;;;;-7.15;100.00;144547.84;4987980;28;20327;-66
2024/01/20 04:16:53;;;;;;;0.00;0.00;;;;;;;-7.24;100.00;144525.72;4995260;28;20241;-66
2024/01/20 04:19:20;;;;;;;0.10;0.10;;;;;;;-7.31;100.00;144508.50;4994151;28;20241;-66
2024/01/20 04:21:46;;;;;;;0.00;0.00;;;;;;;-7.27;100.00;144518.34;4998570;28;20236;-66
2024/01/20 04:24:14;;;;;;;0.03;0.03;;;;;;;-7.17;100.00;144541.69;5000157;28;20231;-66
2024/01/20 04:26:41;;;;;;;0.10;0.10;;;;;;;-7.22;100.00;144529.38;4996373;28;20711;-66
2024/01/20 04:29:07;;;;;;;0.03;0.03;;;;;;;-7.23;100.00;144528.19;4996357;28;20245;-66
2024/01/20 04:31:34;;;;;;;0.10;0.10;;;;;;;-7.26;100.00;144520.81;5190347;23;20233;-66
2024/01/20 04:34:01;;;;;;;0.10;0.10;;;;;;;-7.33;100.00;144504.81;4975254;28;20230;-66
2024/01/20 04:36:27;;;;;;;0.10;0.10;;;;;;;-7.28;100.00;144515.88;4977252;28;20253;-66
2024/01/20 04:38:54;;;;;;;0.00;0.00;;;;;;;-7.24;100.00;144525.72;4975047;28;20234;-66
2024/01/20 04:41:22;;;;;;;0.10;0.10;;;;;;;-7.30;100.00;144512.19;4968453;28;20234;-66
2024/01/20 04:43:48;;;;;;;0.10;0.10;;;;;;;-7.34;100.00;144502.34;4952732;28;20243;-66
2024/01/20 04:46:15;;;;;;;0.10;0.10;;;;;;;-7.29;100.00;144513.44;4958679;28;20234;-66
2024/01/20 04:48:42;;;;;;;0.00;0.00;;;;;;;-7.20;100.00;144534.31;4957171;28;20241;-66
2024/01/20 04:51:09;;;;;;;0.00;0.00;;;;;;;-7.04;100.00;144572.44;4954051;28;20270;-66
2024/01/20 04:53:35;;;;;;;0.10;0.10;;;;;;;-7.11;100.00;144556.41;4971599;28;20278;-66
2024/01/20 04:56:04;;;;;;;0.10;0.10;;;;;;;-7.15;100.00;144546.59;4958053;28;20241;-66
2024/01/20 04:58:32;;;;;;;0.00;0.00;;;;;;;-7.14;100.00;144550.31;4957531;28;20621;-66
2024/01/20 05:00:59;;;;;;;0.00;0.00;;;;;;;-7.12;100.00;144555.22;4952892;28;20235;-65
2024/01/20 05:03:26;;;;;;;0.00;0.00;;;;;;;-7.18;100.00;144540.47;4957645;28;20240;-65
2024/01/20 05:05:52;;;;;;;0.00;0.00;;;;;;;-7.21;100.00;144531.84;4957365;28;20320;-65
2024/01/20 05:08:19;;;;;;;0.10;0.10;;;;;;;-7.23;100.00;144526.94;4961123;28;20231;-66
2024/01/20 05:10:46;;;;;;;0.10;0.10;;;;;;;-7.22;100.00;144530.63;4959186;28;20227;-66
2024/01/20 05:13:12;;;;;;;0.10;0.10;;;;;;;-7.09;100.00;144561.34;4955559;28;20330;-66
2024/01/20 05:15:40;;;;;;;0.10;0.10;;;;;;;-7.02;100.00;144578.56;4956629;28;20231;-66
2024/01/20 05:18:07;;;;;;;0.10;0.10;;;;;;;-7.02;100.00;144577.34;4955522;28;20231;-66
2024/01/20 05:20:34;;;;;;;0.10;0.10;;;;;;;-7.07;100.00;144565.06;4948383;28;20231;-66
2024/01/20 05:23:00;;;;;;;0.10;0.10;;;;;;;-7.02;100.00;144577.34;4952218;28;20250;-66
2024/01/20 05:25:27;;;;;;;0.10;0.10;;;;;;;-7.08;100.00;144563.81;4955839;28;20224;-66
2024/01/20 05:27:55;;;;;;;0.10;0.10;;;;;;;-7.18;100.00;144539.22;4955451;28;20237;-66
2024/01/20 05:30:21;;;;;;;0.10;0.10;;;;;;;-7.27;100.00;144518.34;4954737;28;20244;-66
2024/01/20 05:32:49;;;;;;;0.10;0.10;;;;;;;-7.33;100.00;144503.59;4956748;28;20235;-66
2024/01/20 05:35:16;;;;;;;0.10;0.10;;;;;;;-7.29;100.00;144513.44;4955177;28;20690;-66
2024/01/20 05:37:43;;;;;;;0.00;0.00;;;;;;;-7.26;100.00;144522.00;4953185;28;20648;-65
2024/01/20 05:40:10;;;;;;;0.00;0.00;;;;;;;-7.22;100.00;144530.63;4953471;28;20246;-65
2024/01/20 05:42:37;;;;;;;0.10;0.10;;;;;;;-7.09;100.00;144560.13;4956666;28;20234;-65
2024/01/20 05:45:04;;;;;;;0.10;0.10;;;;;;;-7.15;100.00;144546.59;4953582;28;20239;-64
2024/01/20 05:47:30;;;;;;;0.10;0.10;;;;;;;-7.12;100.00;144555.22;4957776;28;20246;-66
2024/01/20 05:49:59;;;;;;;0.00;0.00;;;;;;;-7.17;100.00;144542.94;4953276;28;20538;-65
2024/01/20 05:52:25;;;;;;;0.10;0.10;;;;;;;-7.16;100.00;144544.13;4955455;28;20253;-65
2024/01/20 05:54:52;;;;;;;0.10;0.10;;;;;;;-7.05;100.00;144569.97;4956298;28;20318;-65
2024/01/20 05:57:18;;;;;;;0.10;0.10;;;;;;;-7.03;100.00;144576.09;4953706;28;21040;-65
2024/01/20 05:59:45;;;;;;;0.10;0.10;;;;;;;-7.16;100.00;144545.38;4955175;28;20316;-65
2024/01/20 06:02:12;;;;;;;0.10;0.10;;;;;;;-7.22;100.00;144530.63;4955103;28;20734;-65
2024/01/20 06:04:38;;;;;;;0.03;0.03;;;;;;;-7.26;100.00;144522.00;4961122;28;20399;-65
2024/01/20 06:07:06;;;;;;;0.10;0.10;;;;;;;-7.23;100.00;144526.94;4970793;28;20232;-65
2024/01/20 06:09:33;;;;;;;0.00;0.00;;;;;;;-7.30;100.00;144510.97;4956075;28;20275;-65
2024/01/20 06:12:00;;;;;;;0.00;0.00;;;;;;;-7.18;100.00;144540.47;4951612;28;20910;-65
2024/01/20 06:14:26;;;;;;;0.10;0.10;;;;;;;-7.28;100.00;144515.88;4971373;28;20243;-65
2024/01/20 06:16:53;;;;;;;0.10;0.10;;;;;;;-7.37;100.00;144494.97;4955408;28;20973;-65
2024/01/20 06:19:20;;;;;;;0.07;0.07;;;;;;;-7.39;100.00;144490.06;4957156;28;20232;-65
2024/01/20 06:21:46;;;;;;;0.00;0.00;;;;;;;-7.47;100.00;144470.44;4952655;28;20608;-65
2024/01/20 06:24:14;;;;;;;0.00;0.00;;;;;;;-7.45;100.00;144476.56;4954615;28;20235;-65
2024/01/20 06:26:41;;;;;;;0.10;0.10;;;;;;;-7.50;100.00;144463.06;4957963;28;20744;-65
2024/01/20 06:29:07;;;;;;;0.10;0.10;;;;;;;-7.56;100.00;144449.53;4967968;28;20322;-64
2024/01/20 06:31:34;;;;;;;0.10;0.10;;;;;;;-7.55;100.00;144451.97;4955620;28;20235;-65
2024/01/20 06:34:01;;;;;;;0.10;0.10;;;;;;;-7.59;100.00;144443.41;4952306;28;20351;-65
2024/01/20 06:36:27;;;;;;;0.10;0.10;;;;;;;-7.64;100.00;144431.13;4971326;28;20239;-64
2024/01/20 06:38:54;;;;;;;0.10;0.10;;;;;;;-7.57;100.00;144447.06;4960775;28;20219;-65
2024/01/20 06:41:22;;;;;;;0.00;0.00;;;;;;;-7.60;100.00;144439.69;4953278;28;20734;-65
2024/01/20 06:43:48;;;;;;;0.10;0.10;;;;;;;-7.61;100.00;144438.50;4954469;28;20264;-65
2024/01/20 06:46:15;;;;;;;0.10;0.10;;;;;;;-7.68;100.00;144420.03;4953408;28;20221;-65
2024/01/20 06:48:42;;;;;;;0.10;0.10;;;;;;;-7.70;100.00;144416.38;4954251;28;20237;-65
2024/01/20 06:51:14;;;;;;;0.10;0.10;;;;;;;-7.64;100.00;144431.13;4952041;28;20234;-65
2024/01/20 06:53:41;;;;;;;0.10;0.10;;;;;;;-7.62;100.00;144436.03;4954588;28;20227;-65
2024/01/20 06:56:08;;;;;;;0.10;0.10;;;;;;;-7.71;100.00;144415.13;4954221;28;20235;-65
2024/01/20 06:58:36;;;;;;;0.10;0.10;;;;;;;-7.65;100.00;144428.66;4958902;28;20701;-65
2024/01/20 07:01:03;;;;;;;0.10;0.10;;;;;;;-7.71;100.00;144415.13;4954772;28;20254;-65
2024/01/20 07:03:30;;;;;;;0.07;0.07;;;;;;;-7.64;100.00;144429.88;4955666;28;20277;-65
2024/01/20 07:05:59;;;;;;;0.10;0.10;;;;;;;-7.60;100.00;144439.69;4957261;28;20292;-65
2024/01/20 07:08:25;;;;;;;0.10;0.10;;;;;;;-7.58;100.00;144445.88;4956787;28;20243;-65
2024/01/20 07:10:52;;;;;;;0.10;0.10;;;;;;;-7.61;100.00;144437.25;4955544;28;20246;-65
2024/01/20 07:13:19;;;;;;;0.10;0.10;;;;;;;-7.70;100.00;144416.38;4953265;28;20242;-65
2024/01/20 07:15:47;;;;;;;0.10;0.10;;;;;;;-7.72;100.00;144412.66;4947774;28;20238;-65
2024/01/20 07:18:13;;;;;;;0.10;0.10;;;;;;;-7.63;100.00;144432.31;4950431;28;20234;-65
2024/01/20 07:20:40;;;;;;;0.00;0.00;;;;;;;-7.58;100.00;144445.88;4961026;28;20461;-65
2024/01/20 07:23:07;;;;;;;0.10;0.10;;;;;;;-7.55;100.00;144451.97;4949424;28;20707;-66
2024/01/20 07:25:36;;;;;;;0.10;0.10;;;;;;;-7.44;100.00;144479.03;4954339;28;20682;-65
2024/01/20 07:28:03;;;;;;;0.03;0.03;;;;;;;-7.44;100.00;144479.03;4965967;28;20233;-66
2024/01/20 07:30:30;;;;;;;0.10;0.10;;;;;;;-7.32;100.00;144507.25;4954594;28;20586;-66
2024/01/20 07:32:58;;;;;;;0.10;0.10;;;;;;;-7.29;100.00;144514.63;4956391;28;20230;-67
2024/01/20 07:35:26;;;;;;;0.10;0.10;;;;;;;-7.34;100.00;144502.34;4950481;28;20235;-65
2024/01/20 07:37:52;;;;;;;0.10;0.10;;;;;;;-7.34;100.00;144502.34;4955935;28;20231;-66
2024/01/20 07:40:19;;;;;;;0.10;0.10;;;;;;;-7.31;100.00;144509.72;4953958;28;20237;-66
2024/01/20 07:42:45;;;;;;;0.10;0.10;;;;;;;-7.32;100.00;144507.25;4955722;28;20235;-66
2024/01/20 07:45:12;;;;;;;0.10;0.10;;;;;;;-7.28;100.00;144515.88;4970987;28;20228;-66
2024/01/20 07:47:39;;;;;;;0.10;0.10;;;;;;;-7.19;100.00;144536.75;4969801;28;20231;-66
2024/01/20 07:50:08;;;;;;;0.00;0.00;;;;;;;-7.11;100.00;144556.41;4957868;28;20242;-66
2024/01/20 07:52:34;;;;;;;0.00;0.00;;;;;;;-7.07;100.00;144565.06;4959443;28;20299;-66
2024/01/20 07:55:01;;;;;;;0.10;0.10;;;;;;;-7.01;100.00;144579.81;4954685;28;20231;-66
2024/01/20 07:57:28;;;;;;;0.10;0.10;;;;;;;-6.99;100.00;144585.94;4960608;28;20334;-66
2024/01/20 07:59:54;;;;;;;0.00;0.00;;;;;;;-6.94;100.00;144597.00;4960399;28;20238;-66
2024/01/20 08:02:21;;;;;;;0.10;0.10;;;;;;;-6.76;100.00;144638.78;4958479;28;20237;-64
2024/01/20 08:04:47;;;;;;;0.10;0.10;;;;;;;-6.75;100.00;144642.47;4958978;28;20236;-65
2024/01/20 08:07:15;;;;;;;0.10;0.10;;;;;;;-6.72;100.00;144649.84;4957887;28;20290;-65
2024/01/20 08:09:42;;;;;;;0.10;0.10;;;;;;;-6.75;100.00;144641.22;4960527;28;20282;-65
2024/01/20 08:12:09;;;;;;;0.10;0.10;;;;;;;-6.73;100.00;144647.41;4955520;28;20236;-66
2024/01/20 08:14:35;;;;;;;0.10;0.10;;;;;;;-6.72;100.00;144648.59;4948629;28;20714;-65
2024/01/20 08:17:03;;;;;;;0.10;0.10;;;;;;;-6.68;100.00;144658.44;4956741;28;20239;-65
2024/01/20 08:19:30;;;;;;;0.00;0.00;;;;;;;-6.61;100.00;144674.44;4958562;28;20266;-66
2024/01/20 08:21:56;;;;;;;0.10;0.10;;;;;;;-6.65;100.00;144664.63;4960211;28;20627;-65
2024/01/20 08:24:24;;;;;;;0.00;0.00;;;;;;;-6.75;100.00;144642.47;4954760;28;20606;-65
2024/01/20 08:26:51;;;;;;;0.00;0.00;;;;;;;-6.77;100.00;144637.56;4960166;28;20231;-65
2024/01/20 08:29:18;;;;;;;0.10;0.10;;;;;;;-6.86;100.00;144616.63;4957830;28;21194;-65
2024/01/20 08:31:45;;;;;;;0.00;0.00;;;;;;;-6.93;100.00;144598.22;4959785;28;20320;-65
2024/01/20 08:34:11;;;;;;;0.10;0.10;;;;;;;-6.94;100.00;144595.75;4955250;28;20234;-65
2024/01/20 08:36:38;;;;;;;0.10;0.10;;;;;;;-6.97;100.00;144589.63;4958820;28;20223;-65
2024/01/20 08:39:05;;;;;;;0.10;0.10;;;;;;;-6.94;100.00;144595.75;4956058;28;20223;-65
2024/01/20 08:41:33;;;;;;;0.00;0.00;;;;;;;-6.97;100.00;144590.84;4955496;28;20232;-65
2024/01/20 08:44:00;;;;;;;0.10;0.10;;;;;;;-6.91;100.00;144604.38;4954164;28;20309;-65
2024/01/20 08:46:26;;;;;;;0.07;0.07;;;;;;;-6.83;100.00;144624.00;4958225;28;20239;-65
2024/01/20 08:48:53;;;;;;;0.00;0.00;;;;;;;-6.71;100.00;144652.31;4959716;28;20222;-66
2024/01/20 08:51:19;;;;;;;0.00;0.00;;;;;;;-6.67;100.00;144662.16;4955303;28;20243;-66
2024/01/20 08:53:48;;;;;;;0.10;0.10;;;;;;;-6.59;100.00;144679.38;4955146;28;20298;-66
2024/01/20 08:56:15;;;;;;;0.00;0.00;;;;;;;-6.53;100.00;144695.34;4957416;28;20291;-66
2024/01/20 08:58:43;;;;;;;0.00;0.00;;;;;;;-6.46;100.00;144710.09;4957565;28;20242;-66
2024/01/20 09:01:09;;;;;;;0.10;0.10;;;;;;;-6.40;100.00;144726.09;4960907;28;20220;-66
2024/01/20 09:03:36;;;;;;;0.03;0.03;;;;;;;-6.31;100.00;144747.00;4959860;28;20224;-67
2024/01/20 09:06:02;;;;;;;0.10;0.10;;;;;;;-6.26;100.00;144758.03;4955636;28;20229;-66
2024/01/20 09:08:29;;;;;;;0.10;0.10;;;;;;;-6.22;100.00;144767.88;4958152;28;20307;-67
2024/01/20 09:10:56;;;;;;;0.10;0.10;;;;;;;-6.17;100.00;144780.19;4956382;28;20244;-67
2024/01/20 09:13:23;;;;;;;0.10;0.10;;;;;;;-6.12;100.00;144792.47;4935148;28;20235;-66
2024/01/20 09:15:51;;;;;;;0.10;0.10;;;;;;;-6.08;100.00;144802.31;4942373;28;20702;-66
2024/01/20 09:18:18;;;;;;;0.00;0.00;;;;;;;-6.13;100.00;144790.03;4938142;28;20339;-67
2024/01/20 09:20:45;;;;;;;0.00;0.00;;;;;;;-6.23;100.00;144765.41;4960333;28;20230;-66
2024/01/20 09:23:12;;;;;;;0.10;0.10;;;;;;;-6.16;100.00;144782.63;4955885;28;20220;-66
2024/01/20 09:25:39;;;;;;;0.00;0.00;;;;;;;-6.20;100.00;144772.78;4959010;28;20234;-66
2024/01/20 09:28:06;;;;;;;0.10;0.10;;;;;;;-6.06;100.00;144806.03;4920566;28;20237;-66
2024/01/20 09:30:35;;;;;;;0.10;0.10;;;;;;;-5.93;100.00;144837.97;4963011;28;20264;-66
2024/01/20 09:33:04;;;;;;;0.10;0.10;;;;;;;-5.75;100.00;144879.78;4951623;28;20239;-67
2024/01/20 09:35:31;;;;;;;0.10;0.10;;;;;;;-5.59;100.00;144916.69;4955867;28;20480;-66
2024/01/20 09:37:57;;;;;;;0.10;0.10;;;;;;;-5.44;100.00;144952.41;4968344;28;20227;-66
2024/01/20 09:40:24;;;;;;;0.07;0.07;;;;;;;-5.32;100.00;144981.94;4959441;28;20248;-66
2024/01/20 09:42:52;;;;;;;0.00;0.00;;;;;;;-5.30;100.00;144986.88;4956871;28;20240;-66
2024/01/20 09:45:19;;;;;;;0.10;0.10;;;;;;;-5.22;100.00;145005.31;4953352;28;20242;-66
2024/01/20 09:47:46;;;;;;;0.10;0.10;;;;;;;-5.23;100.00;145004.06;4956539;28;20260;-66
2024/01/20 09:50:14;;;;;;;0.00;0.00;;;;;;;-5.25;100.00;144999.13;4955340;28;20313;-66
2024/01/20 09:52:52;;;;;;;0.00;0.00;;;;;;;-5.24;100.00;145001.59;4955906;28;20232;-66
2024/01/20 09:55:21;;;;;;;0.03;0.03;;;;;;;-5.13;100.00;145026.22;4945759;28;20287;-66
2024/01/20 09:57:50;;;;;;;0.10;0.10;;;;;;;-5.16;100.00;145020.09;4956383;28;20223;-66
2024/01/20 10:00:18;;;;;;;0.00;0.00;;;;;;;-5.16;100.00;145020.09;4943921;28;20230;-66
2024/01/20 10:02:45;;;;;;;0.10;0.10;;;;;;;-5.09;100.00;145036.06;4953935;28;20252;-66
2024/01/20 10:05:15;;;;;;;0.00;0.00;;;;;;;-4.99;100.00;145060.69;4956347;28;20320;-66
2024/01/20 10:07:42;;;;;;;0.00;0.00;;;;;;;-4.99;100.00;145059.50;4955118;28;21148;-66
2024/01/20 10:10:09;;;;;;;0.00;0.00;;;;;;;-4.89;100.00;145085.31;4953694;28;20226;-66
2024/01/20 10:12:37;;;;;;;0.00;0.00;;;;;;;-4.78;100.00;145111.22;4957069;28;20240;-66
2024/01/20 10:15:04;;;;;;;0.00;0.00;;;;;;;-4.62;100.00;145148.13;4966741;28;20953;-66
2024/01/20 10:17:37;;;;;;;0.03;0.03;;;;;;;-4.50;100.00;145176.47;4955301;28;20827;-66
2024/01/20 10:20:05;;;;;;;0.00;0.00;;;;;;;-4.41;100.00;145197.38;4952910;28;20226;-66
2024/01/20 10:22:33;;;;;;;0.00;0.00;;;;;;;-4.35;100.00;145212.16;4957984;28;20231;-66
2024/01/20 10:24:59;;;;;;;0.00;0.00;;;;;;;-4.30;100.00;145225.75;4951868;28;20228;-66
2024/01/20 10:27:26;;;;;;;0.00;0.00;;;;;;;-4.21;100.00;145246.66;4960610;28;20224;-66
2024/01/20 10:29:52;;;;;;;0.00;0.00;;;;;;;-4.10;100.00;145272.53;4957989;28;20231;-66
2024/01/20 10:32:19;;;;;;;0.00;0.00;;;;;;;-4.15;100.00;145260.19;4954163;28;20229;-66
2024/01/20 10:34:46;;;;;;;0.00;0.00;;;;;;;-4.09;100.00;145273.78;4954546;28;20231;-66
2024/01/20 10:37:13;;;;;;;0.00;0.00;;;;;;;-4.17;100.00;145256.53;4952693;28;20255;-66
2024/01/20 10:39:43;;;;;;;0.00;0.00;;;;;;;-4.19;100.00;145251.59;4955294;28;20232;-66
2024/01/20 10:42:12;;;;;;;0.00;0.00;;;;;;;-4.23;100.00;145240.50;4953891;28;20227;-66
2024/01/20 10:44:41;;;;;;;0.00;0.00;;;;;;;-4.18;100.00;145252.81;4956144;28;20235;-66
2024/01/20 10:47:15;;;;;;;0.00;0.00;;;;;;;-4.16;100.00;145259.00;4954351;28;20236;-66
2024/01/20 10:49:46;;;;;;;0.00;0.00;;;;;;;-4.24;100.00;145239.28;4957838;28;20864;-66
2024/01/20 10:52:13;;;;;;;0.00;0.00;;;;;;;-4.06;100.00;145282.38;4968537;28;20229;-66
2024/01/20 10:54:43;;;;;;;0.10;0.10;;;;;;;-4.13;100.00;145265.13;4954461;28;20263;-66
2024/01/20 10:57:10;;;;;;;0.10;0.10;;;;;;;-4.10;100.00;145272.53;4951979;28;20231;-66
2024/01/20 10:59:41;;;;;;;0.00;0.00;;;;;;;-4.08;100.00;145276.25;4958131;28;20716;-66
2024/01/20 11:02:09;;;;;;;0.10;0.10;;;;;;;-4.19;100.00;145250.34;4955850;28;20244;-66
2024/01/20 11:04:37;;;;;;;0.00;0.00;;;;;;;-4.18;100.00;145254.06;4955961;28;20239;-66
2024/01/20 11:07:06;;;;;;;0.00;0.00;;;;;;;-4.11;100.00;145270.06;4944628;28;20242;-66
2024/01/20 11:09:33;;;;;;;0.00;0.00;;;;;;;-4.04;100.00;145286.09;4956169;28;20683;-66
2024/01/20 11:12:03;;;;;;;0.00;0.00;;;;;;;-4.10;100.00;145271.31;4953697;28;20227;-66
2024/01/20 11:14:30;;;;;;;0.00;0.00;;;;;;;-4.06;100.00;145281.16;4954974;28;20238;-66
2024/01/20 11:16:58;;;;;;;0.00;0.00;;;;;;;-3.97;100.00;145303.34;4956454;28;20617;-66